Terminal Aerodrome Forecast
Issued by NWS

Home | Current Version | Previous Version | Text Only | Print | Product List | Glossary On
Versions: 1 2 3 4 5 6 7 8 9 10 11 12 13 14 15 16
000
FTUS41 KGYX 041120
TAFLEB
TAF
KLEB 041120Z 0412/0512 00000KT P6SM SKC
     FM041500 22010KT P6SM BKN250
     FM041800 21012G19KT P6SM BKN250
     FM042100 21010KT P6SM OVC100 PROB30 0505/0506 P6SM -RA OVC050
     FM051100 32007KT P6SM BKN100=

USA.gov is the U.S. government's official web portal to all federal, state and local government web resources and services.